sensor_id;sensor_type;location;lat;lon;timestamp;P1;durP1;ratioP1;P2;durP2;ratioP2
16979;SDS011;42288;52.182;21.156;2023-05-21T00:00:57;10.17;;;5.03;;
16979;SDS011;42288;52.182;21.156;2023-05-21T00:03:24;11.73;;;4.90;;
16979;SDS011;42288;52.182;21.156;2023-05-21T00:05:52;10.83;;;4.60;;
16979;SDS011;42288;52.182;21.156;2023-05-21T00:08:18;7.40;;;4.57;;
16979;SDS011;42288;52.182;21.156;2023-05-21T00:10:44;8.77;;;4.33;;
16979;SDS011;42288;52.182;21.156;2023-05-21T00:13:10;7.73;;;4.47;;
16979;SDS011;42288;52.182;21.156;2023-05-21T00:15:35;9.37;;;4.73;;
16979;SDS011;42288;52.182;21.156;2023-05-21T00:18:02;6.67;;;4.30;;
16979;SDS011;42288;52.182;21.156;2023-05-21T00:20:28;9.63;;;4.97;;
16979;SDS011;42288;52.182;21.156;2023-05-21T00:22:56;12.67;;;4.87;;
16979;SDS011;42288;52.182;21.156;2023-05-21T00:25:22;6.83;;;4.47;;
16979;SDS011;42288;52.182;21.156;2023-05-21T00:27:48;9.00;;;4.50;;
16979;SDS011;42288;52.182;21.156;2023-05-21T00:30:13;6.83;;;4.30;;
16979;SDS011;42288;52.182;21.156;2023-05-21T00:32:40;7.70;;;3.90;;
16979;SDS011;42288;52.182;21.156;2023-05-21T00:35:06;8.93;;;4.60;;
16979;SDS011;42288;52.182;21.156;2023-05-21T00:37:32;7.37;;;4.23;;
16979;SDS011;42288;52.182;21.156;2023-05-21T00:40:02;10.67;;;4.70;;
16979;SDS011;42288;52.182;21.156;2023-05-21T00:42:32;7.57;;;4.23;;
16979;SDS011;42288;52.182;21.156;2023-05-21T00:45:03;7.17;;;4.60;;
16979;SDS011;42288;52.182;21.156;2023-05-21T00:47:29;6.47;;;4.23;;
16979;SDS011;42288;52.182;21.156;2023-05-21T00:49:55;6.30;;;4.30;;
16979;SDS011;42288;52.182;21.156;2023-05-21T00:52:21;7.63;;;4.43;;
16979;SDS011;42288;52.182;21.156;2023-05-21T00:54:50;11.63;;;4.43;;
16979;SDS011;42288;52.182;21.156;2023-05-21T00:57:17;6.63;;;4.40;;
16979;SDS011;42288;52.182;21.156;2023-05-21T00:59:47;6.83;;;4.27;;
16979;SDS011;42288;52.182;21.156;2023-05-21T01:02:16;8.87;;;4.53;;
16979;SDS011;42288;52.182;21.156;2023-05-21T01:04:45;6.63;;;4.43;;
16979;SDS011;42288;52.182;21.156;2023-05-21T01:07:11;7.70;;;4.40;;
16979;SDS011;42288;52.182;21.156;2023-05-21T01:09:38;6.73;;;4.13;;
16979;SDS011;42288;52.182;21.156;2023-05-21T01:12:05;7.60;;;4.80;;
16979;SDS011;42288;52.182;21.156;2023-05-21T01:14:31;9.57;;;4.67;;
16979;SDS011;42288;52.182;21.156;2023-05-21T01:16:58;7.00;;;4.90;;
16979;SDS011;42288;52.182;21.156;2023-05-21T01:19:26;8.70;;;4.50;;
16979;SDS011;42288;52.182;21.156;2023-05-21T01:21:55;21.67;;;8.90;;
16979;SDS011;42288;52.182;21.156;2023-05-21T01:24:24;31.87;;;13.93;;
16979;SDS011;42288;52.182;21.156;2023-05-21T01:26:50;49.23;;;19.10;;
16979;SDS011;42288;52.182;21.156;2023-05-21T01:29:16;51.73;;;19.97;;
16979;SDS011;42288;52.182;21.156;2023-05-21T01:34:28;56.87;;;23.13;;
16979;SDS011;42288;52.182;21.156;2023-05-21T01:37:07;63.73;;;24.20;;
16979;SDS011;42288;52.182;21.156;2023-05-21T01:39:48;51.70;;;21.33;;
16979;SDS011;42288;52.182;21.156;2023-05-21T01:42:19;46.70;;;19.20;;
16979;SDS011;42288;52.182;21.156;2023-05-21T01:44:48;59.00;;;24.20;;
16979;SDS011;42288;52.182;21.156;2023-05-21T01:47:16;58.70;;;23.73;;
16979;SDS011;42288;52.182;21.156;2023-05-21T01:49:43;54.40;;;22.60;;
16979;SDS011;42288;52.182;21.156;2023-05-21T01:52:10;58.43;;;23.70;;
16979;SDS011;42288;52.182;21.156;2023-05-21T01:54:36;53.50;;;22.50;;
16979;SDS011;42288;52.182;21.156;2023-05-21T01:57:02;50.33;;;19.97;;
16979;SDS011;42288;52.182;21.156;2023-05-21T01:59:28;38.70;;;16.50;;
16979;SDS011;42288;52.182;21.156;2023-05-21T02:01:54;42.60;;;17.57;;
16979;SDS011;42288;52.182;21.156;2023-05-21T02:04:19;44.47;;;17.47;;
16979;SDS011;42288;52.182;21.156;2023-05-21T02:06:45;48.03;;;19.07;;
16979;SDS011;42288;52.182;21.156;2023-05-21T02:09:10;47.50;;;19.93;;
16979;SDS011;42288;52.182;21.156;2023-05-21T02:11:36;42.60;;;18.50;;
16979;SDS011;42288;52.182;21.156;2023-05-21T02:14:02;41.10;;;18.83;;
16979;SDS011;42288;52.182;21.156;2023-05-21T02:16:27;44.50;;;19.83;;
16979;SDS011;42288;52.182;21.156;2023-05-21T02:18:53;38.30;;;18.20;;
16979;SDS011;42288;52.182;21.156;2023-05-21T02:21:21;40.73;;;18.10;;
16979;SDS011;42288;52.182;21.156;2023-05-21T02:23:46;39.50;;;18.07;;
16979;SDS011;42288;52.182;21.156;2023-05-21T02:26:12;36.00;;;17.13;;
16979;SDS011;42288;52.182;21.156;2023-05-21T02:28:38;33.07;;;16.23;;
16979;SDS011;42288;52.182;21.156;2023-05-21T02:31:04;29.87;;;15.13;;
16979;SDS011;42288;52.182;21.156;2023-05-21T02:33:30;36.00;;;16.23;;
16979;SDS011;42288;52.182;21.156;2023-05-21T02:35:56;28.33;;;14.83;;
16979;SDS011;42288;52.182;21.156;2023-05-21T02:38:21;27.23;;;13.60;;
16979;SDS011;42288;52.182;21.156;2023-05-21T02:40:49;21.00;;;10.57;;
16979;SDS011;42288;52.182;21.156;2023-05-21T02:43:15;21.17;;;11.07;;
16979;SDS011;42288;52.182;21.156;2023-05-21T02:45:41;26.40;;;12.13;;
16979;SDS011;42288;52.182;21.156;2023-05-21T02:48:07;30.13;;;12.37;;
16979;SDS011;42288;52.182;21.156;2023-05-21T02:50:32;24.90;;;11.83;;
16979;SDS011;42288;52.182;21.156;2023-05-21T02:52:58;23.97;;;11.67;;
16979;SDS011;42288;52.182;21.156;2023-05-21T02:55:24;21.93;;;11.60;;
16979;SDS011;42288;52.182;21.156;2023-05-21T02:57:50;22.27;;;11.33;;
16979;SDS011;42288;52.182;21.156;2023-05-21T03:00:15;21.73;;;10.13;;
16979;SDS011;42288;52.182;21.156;2023-05-21T03:02:41;20.03;;;9.93;;
16979;SDS011;42288;52.182;21.156;2023-05-21T03:05:07;19.93;;;9.93;;
16979;SDS011;42288;52.182;21.156;2023-05-21T03:07:33;17.80;;;9.70;;
16979;SDS011;42288;52.182;21.156;2023-05-21T03:09:58;18.07;;;8.60;;
16979;SDS011;42288;52.182;21.156;2023-05-21T03:12:24;18.70;;;8.10;;
16979;SDS011;42288;52.182;21.156;2023-05-21T03:14:50;15.27;;;8.83;;
16979;SDS011;42288;52.182;21.156;2023-05-21T03:17:17;15.93;;;9.03;;
16979;SDS011;42288;52.182;21.156;2023-05-21T03:19:43;15.27;;;8.97;;
16979;SDS011;42288;52.182;21.156;2023-05-21T03:22:09;18.37;;;7.93;;
16979;SDS011;42288;52.182;21.156;2023-05-21T03:24:38;16.50;;;7.80;;
16979;SDS011;42288;52.182;21.156;2023-05-21T03:27:03;15.57;;;8.40;;
16979;SDS011;42288;52.182;21.156;2023-05-21T03:29:32;14.03;;;7.93;;
16979;SDS011;42288;52.182;21.156;2023-05-21T03:31:59;13.97;;;7.50;;
16979;SDS011;42288;52.182;21.156;2023-05-21T03:34:25;14.97;;;7.93;;
16979;SDS011;42288;52.182;21.156;2023-05-21T03:36:50;11.70;;;7.37;;
16979;SDS011;42288;52.182;21.156;2023-05-21T03:39:16;11.97;;;7.20;;
16979;SDS011;42288;52.182;21.156;2023-05-21T03:41:42;9.13;;;6.30;;
16979;SDS011;42288;52.182;21.156;2023-05-21T03:44:07;11.73;;;6.07;;
16979;SDS011;42288;52.182;21.156;2023-05-21T03:46:33;17.40;;;6.50;;
16979;SDS011;42288;52.182;21.156;2023-05-21T03:48:58;14.43;;;6.33;;
16979;SDS011;42288;52.182;21.156;2023-05-21T03:51:24;8.87;;;5.80;;
16979;SDS011;42288;52.182;21.156;2023-05-21T03:53:50;8.73;;;5.13;;
16979;SDS011;42288;52.182;21.156;2023-05-21T03:56:16;7.10;;;5.23;;
16979;SDS011;42288;52.182;21.156;2023-05-21T03:58:41;8.00;;;4.60;;
16979;SDS011;42288;52.182;21.156;2023-05-21T04:01:07;7.13;;;4.80;;
16979;SDS011;42288;52.182;21.156;2023-05-21T04:03:33;10.27;;;5.10;;
16979;SDS011;42288;52.182;21.156;2023-05-21T04:06:02;7.70;;;4.37;;
16979;SDS011;42288;52.182;21.156;2023-05-21T04:08:28;7.57;;;4.10;;
16979;SDS011;42288;52.182;21.156;2023-05-21T04:10:54;7.67;;;3.97;;
16979;SDS011;42288;52.182;21.156;2023-05-21T04:13:19;5.40;;;3.60;;
16979;SDS011;42288;52.182;21.156;2023-05-21T04:15:45;7.50;;;3.90;;
16979;SDS011;42288;52.182;21.156;2023-05-21T04:18:14;5.37;;;3.53;;
16979;SDS011;42288;52.182;21.156;2023-05-21T04:20:41;7.27;;;4.10;;
16979;SDS011;42288;52.182;21.156;2023-05-21T04:23:07;5.60;;;3.30;;
16979;SDS011;42288;52.182;21.156;2023-05-21T04:25:32;4.93;;;3.20;;
16979;SDS011;42288;52.182;21.156;2023-05-21T04:27:58;10.73;;;3.20;;
16979;SDS011;42288;52.182;21.156;2023-05-21T04:30:24;4.10;;;2.93;;
16979;SDS011;42288;52.182;21.156;2023-05-21T04:32:49;5.87;;;3.23;;
16979;SDS011;42288;52.182;21.156;2023-05-21T04:35:16;5.93;;;2.93;;
16979;SDS011;42288;52.182;21.156;2023-05-21T04:37:42;6.97;;;3.40;;
16979;SDS011;42288;52.182;21.156;2023-05-21T04:40:10;7.83;;;2.80;;
16979;SDS011;42288;52.182;21.156;2023-05-21T04:42:36;6.17;;;3.23;;
16979;SDS011;42288;52.182;21.156;2023-05-21T04:45:03;5.60;;;3.00;;
16979;SDS011;42288;52.182;21.156;2023-05-21T04:47:29;5.30;;;2.80;;
16979;SDS011;42288;52.182;21.156;2023-05-21T04:49:59;4.73;;;2.40;;
16979;SDS011;42288;52.182;21.156;2023-05-21T04:52:25;4.83;;;2.67;;
16979;SDS011;42288;52.182;21.156;2023-05-21T04:54:50;5.87;;;2.80;;
16979;SDS011;42288;52.182;21.156;2023-05-21T04:57:18;11.07;;;2.70;;
16979;SDS011;42288;52.182;21.156;2023-05-21T04:59:43;8.30;;;3.07;;
16979;SDS011;42288;52.182;21.156;2023-05-21T05:02:09;6.77;;;2.80;;
16979;SDS011;42288;52.182;21.156;2023-05-21T05:04:35;7.07;;;3.40;;
16979;SDS011;42288;52.182;21.156;2023-05-21T05:07:00;5.07;;;2.60;;
16979;SDS011;42288;52.182;21.156;2023-05-21T05:09:26;8.70;;;2.77;;
16979;SDS011;42288;52.182;21.156;2023-05-21T05:11:52;5.80;;;2.60;;
16979;SDS011;42288;52.182;21.156;2023-05-21T05:14:17;5.60;;;2.47;;
16979;SDS011;42288;52.182;21.156;2023-05-21T05:16:43;8.47;;;2.63;;
16979;SDS011;42288;52.182;21.156;2023-05-21T05:19:12;6.37;;;2.97;;
16979;SDS011;42288;52.182;21.156;2023-05-21T05:21:37;7.20;;;2.63;;
16979;SDS011;42288;52.182;21.156;2023-05-21T05:24:03;6.47;;;2.30;;
16979;SDS011;42288;52.182;21.156;2023-05-21T05:26:29;3.30;;;2.20;;
16979;SDS011;42288;52.182;21.156;2023-05-21T05:28:55;3.50;;;2.37;;
16979;SDS011;42288;52.182;21.156;2023-05-21T05:31:20;3.87;;;2.57;;
16979;SDS011;42288;52.182;21.156;2023-05-21T05:33:46;6.90;;;2.77;;
16979;SDS011;42288;52.182;21.156;2023-05-21T05:36:12;5.97;;;2.60;;
16979;SDS011;42288;52.182;21.156;2023-05-21T05:38:38;5.70;;;2.50;;
16979;SDS011;42288;52.182;21.156;2023-05-21T05:41:04;6.13;;;2.50;;
16979;SDS011;42288;52.182;21.156;2023-05-21T05:43:29;7.60;;;2.30;;
16979;SDS011;42288;52.182;21.156;2023-05-21T05:45:55;6.33;;;2.50;;
16979;SDS011;42288;52.182;21.156;2023-05-21T05:48:21;5.77;;;2.90;;
16979;SDS011;42288;52.182;21.156;2023-05-21T05:50:46;3.83;;;2.47;;
16979;SDS011;42288;52.182;21.156;2023-05-21T05:53:12;6.03;;;2.50;;
16979;SDS011;42288;52.182;21.156;2023-05-21T05:55:38;3.97;;;2.50;;
16979;SDS011;42288;52.182;21.156;2023-05-21T05:58:04;8.57;;;2.90;;
16979;SDS011;42288;52.182;21.156;2023-05-21T06:00:30;3.50;;;2.43;;
16979;SDS011;42288;52.182;21.156;2023-05-21T06:02:56;10.10;;;2.33;;
16979;SDS011;42288;52.182;21.156;2023-05-21T06:05:21;6.77;;;2.47;;
16979;SDS011;42288;52.182;21.156;2023-05-21T06:07:47;3.73;;;2.50;;
16979;SDS011;42288;52.182;21.156;2023-05-21T06:10:13;8.83;;;2.60;;
16979;SDS011;42288;52.182;21.156;2023-05-21T06:12:38;3.73;;;2.33;;
16979;SDS011;42288;52.182;21.156;2023-05-21T06:15:04;8.53;;;2.33;;
16979;SDS011;42288;52.182;21.156;2023-05-21T06:17:30;3.07;;;2.20;;
16979;SDS011;42288;52.182;21.156;2023-05-21T06:19:56;4.37;;;2.60;;
16979;SDS011;42288;52.182;21.156;2023-05-21T06:22:22;4.37;;;2.03;;
16979;SDS011;42288;52.182;21.156;2023-05-21T06:24:47;4.93;;;2.63;;
16979;SDS011;42288;52.182;21.156;2023-05-21T06:27:13;6.83;;;2.30;;
16979;SDS011;42288;52.182;21.156;2023-05-21T06:29:38;4.10;;;2.17;;
16979;SDS011;42288;52.182;21.156;2023-05-21T06:32:05;3.97;;;2.03;;
16979;SDS011;42288;52.182;21.156;2023-05-21T06:34:31;3.90;;;2.43;;
16979;SDS011;42288;52.182;21.156;2023-05-21T06:36:57;6.20;;;2.20;;
16979;SDS011;42288;52.182;21.156;2023-05-21T06:39:22;4.87;;;2.23;;
16979;SDS011;42288;52.182;21.156;2023-05-21T06:41:48;5.67;;;2.30;;
16979;SDS011;42288;52.182;21.156;2023-05-21T06:44:14;5.03;;;2.37;;
16979;SDS011;42288;52.182;21.156;2023-05-21T06:46:40;6.60;;;2.30;;
16979;SDS011;42288;52.182;21.156;2023-05-21T06:49:06;6.83;;;2.60;;
16979;SDS011;42288;52.182;21.156;2023-05-21T06:51:32;3.97;;;2.63;;
16979;SDS011;42288;52.182;21.156;2023-05-21T06:53:58;7.03;;;2.00;;
16979;SDS011;42288;52.182;21.156;2023-05-21T06:56:23;3.07;;;2.10;;
16979;SDS011;42288;52.182;21.156;2023-05-21T06:58:50;3.63;;;2.13;;
16979;SDS011;42288;52.182;21.156;2023-05-21T07:01:15;2.90;;;2.03;;
16979;SDS011;42288;52.182;21.156;2023-05-21T07:03:41;3.53;;;2.30;;
16979;SDS011;42288;52.182;21.156;2023-05-21T07:06:07;3.20;;;1.70;;
16979;SDS011;42288;52.182;21.156;2023-05-21T07:08:32;7.53;;;2.30;;
16979;SDS011;42288;52.182;21.156;2023-05-21T07:10:58;3.30;;;2.03;;
16979;SDS011;42288;52.182;21.156;2023-05-21T07:13:24;9.03;;;2.00;;
16979;SDS011;42288;52.182;21.156;2023-05-21T07:15:49;9.13;;;2.23;;
16979;SDS011;42288;52.182;21.156;2023-05-21T07:18:15;5.97;;;2.40;;
16979;SDS011;42288;52.182;21.156;2023-05-21T07:20:41;5.00;;;2.10;;
16979;SDS011;42288;52.182;21.156;2023-05-21T07:23:06;3.83;;;1.90;;
16979;SDS011;42288;52.182;21.156;2023-05-21T07:25:32;3.17;;;2.00;;
16979;SDS011;42288;52.182;21.156;2023-05-21T07:27:58;3.90;;;2.00;;
16979;SDS011;42288;52.182;21.156;2023-05-21T07:30:23;6.37;;;2.40;;
16979;SDS011;42288;52.182;21.156;2023-05-21T07:32:49;4.17;;;2.20;;
16979;SDS011;42288;52.182;21.156;2023-05-21T07:35:15;3.13;;;2.23;;
16979;SDS011;42288;52.182;21.156;2023-05-21T07:37:40;5.63;;;2.13;;
16979;SDS011;42288;52.182;21.156;2023-05-21T07:40:06;3.63;;;2.03;;
16979;SDS011;42288;52.182;21.156;2023-05-21T07:42:32;3.10;;;2.20;;
16979;SDS011;42288;52.182;21.156;2023-05-21T07:44:58;4.73;;;2.30;;
16979;SDS011;42288;52.182;21.156;2023-05-21T07:47:23;4.03;;;2.10;;
16979;SDS011;42288;52.182;21.156;2023-05-21T07:49:49;4.07;;;2.20;;
16979;SDS011;42288;52.182;21.156;2023-05-21T07:52:15;4.00;;;2.10;;
16979;SDS011;42288;52.182;21.156;2023-05-21T07:54:40;4.20;;;2.10;;
16979;SDS011;42288;52.182;21.156;2023-05-21T07:57:06;8.93;;;2.07;;
16979;SDS011;42288;52.182;21.156;2023-05-21T07:59:31;7.50;;;2.30;;
16979;SDS011;42288;52.182;21.156;2023-05-21T08:01:57;4.53;;;2.20;;
16979;SDS011;42288;52.182;21.156;2023-05-21T08:04:23;5.80;;;2.30;;
16979;SDS011;42288;52.182;21.156;2023-05-21T08:06:50;4.00;;;2.33;;
16979;SDS011;42288;52.182;21.156;2023-05-21T08:09:15;5.63;;;2.17;;
16979;SDS011;42288;52.182;21.156;2023-05-21T08:11:42;3.27;;;2.27;;
16979;SDS011;42288;52.182;21.156;2023-05-21T08:14:09;6.37;;;2.40;;
16979;SDS011;42288;52.182;21.156;2023-05-21T08:16:35;3.88;;;1.95;;
16979;SDS011;42288;52.182;21.156;2023-05-21T08:19:00;3.67;;;1.90;;
16979;SDS011;42288;52.182;21.156;2023-05-21T08:21:26;3.67;;;1.73;;
16979;SDS011;42288;52.182;21.156;2023-05-21T08:23:52;4.97;;;1.97;;
16979;SDS011;42288;52.182;21.156;2023-05-21T08:26:18;5.07;;;2.40;;
16979;SDS011;42288;52.182;21.156;2023-05-21T08:28:43;6.95;;;2.17;;
16979;SDS011;42288;52.182;21.156;2023-05-21T08:31:09;6.07;;;2.08;;
16979;SDS011;42288;52.182;21.156;2023-05-21T08:33:35;7.10;;;2.27;;
16979;SDS011;42288;52.182;21.156;2023-05-21T08:36:04;4.60;;;2.27;;
16979;SDS011;42288;52.182;21.156;2023-05-21T08:38:31;6.83;;;2.53;;
16979;SDS011;42288;52.182;21.156;2023-05-21T08:40:57;5.10;;;2.33;;
16979;SDS011;42288;52.182;21.156;2023-05-21T08:43:27;4.47;;;2.40;;
16979;SDS011;42288;52.182;21.156;2023-05-21T08:45:53;7.20;;;1.73;;
16979;SDS011;42288;52.182;21.156;2023-05-21T08:48:21;3.97;;;2.10;;
16979;SDS011;42288;52.182;21.156;2023-05-21T08:50:48;6.03;;;2.53;;
16979;SDS011;42288;52.182;21.156;2023-05-21T08:53:15;2.63;;;1.60;;
16979;SDS011;42288;52.182;21.156;2023-05-21T08:55:41;6.00;;;2.20;;
16979;SDS011;42288;52.182;21.156;2023-05-21T08:58:07;2.78;;;2.08;;
16979;SDS011;42288;52.182;21.156;2023-05-21T09:00:34;9.27;;;2.50;;
16979;SDS011;42288;52.182;21.156;2023-05-21T09:03:01;6.22;;;2.30;;
16979;SDS011;42288;52.182;21.156;2023-05-21T09:05:31;12.88;;;2.30;;
16979;SDS011;42288;52.182;21.156;2023-05-21T09:08:05;34.85;;;2.30;;
16979;SDS011;42288;52.182;21.156;2023-05-21T09:10:38;4.10;;;2.40;;
16979;SDS011;42288;52.182;21.156;2023-05-21T09:13:06;7.40;;;2.37;;
16979;SDS011;42288;52.182;21.156;2023-05-21T09:15:34;6.35;;;2.50;;
16979;SDS011;42288;52.182;21.156;2023-05-21T09:18:00;2.77;;;2.20;;
16979;SDS011;42288;52.182;21.156;2023-05-21T09:20:26;6.17;;;1.93;;
16979;SDS011;42288;52.182;21.156;2023-05-21T09:22:52;6.07;;;1.83;;
16979;SDS011;42288;52.182;21.156;2023-05-21T09:25:20;5.17;;;1.90;;
16979;SDS011;42288;52.182;21.156;2023-05-21T09:27:48;3.33;;;2.20;;
16979;SDS011;42288;52.182;21.156;2023-05-21T09:30:15;3.53;;;1.90;;
16979;SDS011;42288;52.182;21.156;2023-05-21T09:32:42;9.07;;;1.93;;
16979;SDS011;42288;52.182;21.156;2023-05-21T09:37:45;3.20;;;1.90;;
16979;SDS011;42288;52.182;21.156;2023-05-21T09:40:13;7.82;;;2.25;;
16979;SDS011;42288;52.182;21.156;2023-05-21T09:42:49;3.40;;;2.00;;
16979;SDS011;42288;52.182;21.156;2023-05-21T09:45:19;5.93;;;1.93;;
16979;SDS011;42288;52.182;21.156;2023-05-21T09:47:47;4.23;;;2.10;;
16979;SDS011;42288;52.182;21.156;2023-05-21T09:50:17;15.00;;;2.27;;
16979;SDS011;42288;52.182;21.156;2023-05-21T09:52:45;2.70;;;2.10;;
16979;SDS011;42288;52.182;21.156;2023-05-21T09:55:12;7.83;;;2.00;;
16979;SDS011;42288;52.182;21.156;2023-05-21T09:57:39;7.17;;;2.03;;
16979;SDS011;42288;52.182;21.156;2023-05-21T10:00:06;5.30;;;2.13;;
16979;SDS011;42288;52.182;21.156;2023-05-21T10:02:33;6.43;;;2.20;;
16979;SDS011;42288;52.182;21.156;2023-05-21T10:05:01;7.60;;;2.10;;
16979;SDS011;42288;52.182;21.156;2023-05-21T10:07:33;7.63;;;2.08;;
16979;SDS011;42288;52.182;21.156;2023-05-21T10:10:00;7.28;;;2.08;;
16979;SDS011;42288;52.182;21.156;2023-05-21T10:12:28;3.70;;;2.00;;
16979;SDS011;42288;52.182;21.156;2023-05-21T10:14:59;3.60;;;1.90;;
16979;SDS011;42288;52.182;21.156;2023-05-21T10:17:27;3.90;;;2.10;;
16979;SDS011;42288;52.182;21.156;2023-05-21T10:19:54;7.83;;;1.93;;
16979;SDS011;42288;52.182;21.156;2023-05-21T10:22:21;6.32;;;2.20;;
16979;SDS011;42288;52.182;21.156;2023-05-21T10:24:53;5.07;;;1.75;;
16979;SDS011;42288;52.182;21.156;2023-05-21T10:27:18;3.42;;;1.90;;
16979;SDS011;42288;52.182;21.156;2023-05-21T10:29:46;7.37;;;1.90;;
16979;SDS011;42288;52.182;21.156;2023-05-21T10:32:14;5.88;;;2.40;;
16979;SDS011;42288;52.182;21.156;2023-05-21T10:34:41;2.90;;;1.80;;
16979;SDS011;42288;52.182;21.156;2023-05-21T10:37:08;5.82;;;2.10;;
16979;SDS011;42288;52.182;21.156;2023-05-21T10:39:36;2.67;;;1.80;;
16979;SDS011;42288;52.182;21.156;2023-05-21T10:42:07;2.97;;;1.83;;
16979;SDS011;42288;52.182;21.156;2023-05-21T10:47:52;2.85;;;2.00;;
16979;SDS011;42288;52.182;21.156;2023-05-21T10:53:30;4.65;;;1.92;;
16979;SDS011;42288;52.182;21.156;2023-05-21T11:01:39;3.85;;;1.88;;
16979;SDS011;42288;52.182;21.156;2023-05-21T11:04:05;7.93;;;2.00;;
16979;SDS011;42288;52.182;21.156;2023-05-21T11:06:31;12.40;;;2.20;;
16979;SDS011;42288;52.182;21.156;2023-05-21T11:09:10;9.65;;;1.92;;
16979;SDS011;42288;52.182;21.156;2023-05-21T11:11:41;4.43;;;1.92;;
16979;SDS011;42288;52.182;21.156;2023-05-21T11:16:59;14.65;;;2.05;;
16979;SDS011;42288;52.182;21.156;2023-05-21T11:19:48;4.57;;;1.90;;
16979;SDS011;42288;52.182;21.156;2023-05-21T11:22:20;2.70;;;1.73;;
16979;SDS011;42288;52.182;21.156;2023-05-21T11:24:50;6.30;;;1.85;;
16979;SDS011;42288;52.182;21.156;2023-05-21T11:29:58;4.15;;;2.10;;
16979;SDS011;42288;52.182;21.156;2023-05-21T11:32:27;5.57;;;2.15;;
16979;SDS011;42288;52.182;21.156;2023-05-21T11:34:54;7.32;;;1.83;;
16979;SDS011;42288;52.182;21.156;2023-05-21T11:37:25;3.30;;;1.83;;
16979;SDS011;42288;52.182;21.156;2023-05-21T11:39:55;4.80;;;1.85;;
16979;SDS011;42288;52.182;21.156;2023-05-21T11:42:39;2.75;;;1.95;;
16979;SDS011;42288;52.182;21.156;2023-05-21T11:45:07;5.47;;;2.00;;
16979;SDS011;42288;52.182;21.156;2023-05-21T11:47:33;6.43;;;1.90;;
16979;SDS011;42288;52.182;21.156;2023-05-21T11:49:59;2.65;;;1.90;;
16979;SDS011;42288;52.182;21.156;2023-05-21T11:52:27;7.60;;;2.00;;
16979;SDS011;42288;52.182;21.156;2023-05-21T11:54:54;14.15;;;1.80;;
16979;SDS011;42288;52.182;21.156;2023-05-21T11:57:21;5.22;;;1.70;;
16979;SDS011;42288;52.182;21.156;2023-05-21T11:59:50;2.15;;;1.75;;
16979;SDS011;42288;52.182;21.156;2023-05-21T12:02:16;3.55;;;2.08;;
16979;SDS011;42288;52.182;21.156;2023-05-21T12:04:44;3.88;;;1.75;;
16979;SDS011;42288;52.182;21.156;2023-05-21T12:07:12;5.95;;;2.00;;
16979;SDS011;42288;52.182;21.156;2023-05-21T12:12:09;3.10;;;2.05;;
16979;SDS011;42288;52.182;21.156;2023-05-21T12:14:37;3.75;;;1.50;;
16979;SDS011;42288;52.182;21.156;2023-05-21T12:17:04;3.00;;;1.70;;
16979;SDS011;42288;52.182;21.156;2023-05-21T12:19:32;3.40;;;1.70;;
16979;SDS011;42288;52.182;21.156;2023-05-21T12:21:59;3.58;;;1.90;;
16979;SDS011;42288;52.182;21.156;2023-05-21T12:24:29;2.58;;;1.75;;
16979;SDS011;42288;52.182;21.156;2023-05-21T12:26:56;4.63;;;1.90;;
16979;SDS011;42288;52.182;21.156;2023-05-21T12:29:23;6.22;;;1.90;;
16979;SDS011;42288;52.182;21.156;2023-05-21T12:31:50;4.65;;;1.98;;
16979;SDS011;42288;52.182;21.156;2023-05-21T12:34:35;3.83;;;1.70;;
16979;SDS011;42288;52.182;21.156;2023-05-21T12:37:12;4.30;;;1.98;;
16979;SDS011;42288;52.182;21.156;2023-05-21T12:39:56;2.10;;;1.65;;
16979;SDS011;42288;52.182;21.156;2023-05-21T12:42:24;6.97;;;1.75;;
16979;SDS011;42288;52.182;21.156;2023-05-21T12:45:00;2.55;;;1.75;;
16979;SDS011;42288;52.182;21.156;2023-05-21T12:47:30;1.98;;;1.60;;
16979;SDS011;42288;52.182;21.156;2023-05-21T12:49:57;4.60;;;1.85;;
16979;SDS011;42288;52.182;21.156;2023-05-21T12:52:24;4.07;;;1.83;;
16979;SDS011;42288;52.182;21.156;2023-05-21T12:54:51;3.05;;;1.83;;
16979;SDS011;42288;52.182;21.156;2023-05-21T12:57:19;5.55;;;1.73;;
16979;SDS011;42288;52.182;21.156;2023-05-21T13:02:16;5.53;;;1.98;;
16979;SDS011;42288;52.182;21.156;2023-05-21T13:05:08;4.57;;;1.98;;
16979;SDS011;42288;52.182;21.156;2023-05-21T13:07:39;3.78;;;1.80;;
16979;SDS011;42288;52.182;21.156;2023-05-21T13:10:05;6.28;;;2.00;;
16979;SDS011;42288;52.182;21.156;2023-05-21T13:12:32;5.07;;;1.90;;
16979;SDS011;42288;52.182;21.156;2023-05-21T13:14:59;9.68;;;1.73;;
16979;SDS011;42288;52.182;21.156;2023-05-21T13:17:26;6.28;;;1.73;;
16979;SDS011;42288;52.182;21.156;2023-05-21T13:22:33;3.42;;;2.08;;
16979;SDS011;42288;52.182;21.156;2023-05-21T13:25:00;3.67;;;1.83;;
16979;SDS011;42288;52.182;21.156;2023-05-21T13:27:27;5.20;;;1.80;;
16979;SDS011;42288;52.182;21.156;2023-05-21T13:29:52;4.15;;;1.98;;
16979;SDS011;42288;52.182;21.156;2023-05-21T13:32:18;4.43;;;1.73;;
16979;SDS011;42288;52.182;21.156;2023-05-21T13:34:44;3.30;;;2.20;;
16979;SDS011;42288;52.182;21.156;2023-05-21T13:37:09;5.22;;;1.67;;
16979;SDS011;42288;52.182;21.156;2023-05-21T13:39:35;3.53;;;1.65;;
16979;SDS011;42288;52.182;21.156;2023-05-21T13:42:01;3.55;;;2.00;;
16979;SDS011;42288;52.182;21.156;2023-05-21T13:44:26;4.53;;;1.75;;
16979;SDS011;42288;52.182;21.156;2023-05-21T13:46:52;6.05;;;1.80;;
16979;SDS011;42288;52.182;21.156;2023-05-21T13:49:17;1.95;;;1.52;;
16979;SDS011;42288;52.182;21.156;2023-05-21T13:51:43;3.95;;;1.90;;
16979;SDS011;42288;52.182;21.156;2023-05-21T13:54:09;4.95;;;2.15;;
16979;SDS011;42288;52.182;21.156;2023-05-21T13:56:34;6.47;;;2.05;;
16979;SDS011;42288;52.182;21.156;2023-05-21T13:59:00;2.35;;;1.80;;
16979;SDS011;42288;52.182;21.156;2023-05-21T14:01:25;2.22;;;1.60;;
16979;SDS011;42288;52.182;21.156;2023-05-21T14:03:51;4.13;;;1.80;;
16979;SDS011;42288;52.182;21.156;2023-05-21T14:06:17;2.80;;;2.10;;
16979;SDS011;42288;52.182;21.156;2023-05-21T14:08:42;2.65;;;1.42;;
16979;SDS011;42288;52.182;21.156;2023-05-21T14:11:08;3.35;;;1.77;;
16979;SDS011;42288;52.182;21.156;2023-05-21T14:13:34;2.33;;;1.67;;
16979;SDS011;42288;52.182;21.156;2023-05-21T14:15:59;4.68;;;1.88;;
16979;SDS011;42288;52.182;21.156;2023-05-21T14:18:25;3.13;;;2.03;;
16979;SDS011;42288;52.182;21.156;2023-05-21T14:20:51;4.03;;;1.88;;
16979;SDS011;42288;52.182;21.156;2023-05-21T14:23:17;2.45;;;1.80;;
16979;SDS011;42288;52.182;21.156;2023-05-21T14:25:43;3.25;;;2.40;;
16979;SDS011;42288;52.182;21.156;2023-05-21T14:28:08;5.82;;;2.00;;
16979;SDS011;42288;52.182;21.156;2023-05-21T14:30:34;3.65;;;2.20;;
16979;SDS011;42288;52.182;21.156;2023-05-21T14:33:00;4.13;;;1.60;;
16979;SDS011;42288;52.182;21.156;2023-05-21T14:35:25;4.63;;;2.72;;
16979;SDS011;42288;52.182;21.156;2023-05-21T14:37:51;4.97;;;2.08;;
16979;SDS011;42288;52.182;21.156;2023-05-21T14:40:18;4.57;;;2.00;;
16979;SDS011;42288;52.182;21.156;2023-05-21T14:42:44;9.73;;;1.80;;
16979;SDS011;42288;52.182;21.156;2023-05-21T14:45:09;4.75;;;1.88;;
16979;SDS011;42288;52.182;21.156;2023-05-21T14:47:35;2.33;;;2.08;;
16979;SDS011;42288;52.182;21.156;2023-05-21T14:50:01;3.97;;;1.83;;
16979;SDS011;42288;52.182;21.156;2023-05-21T14:52:27;4.57;;;2.08;;
16979;SDS011;42288;52.182;21.156;2023-05-21T14:54:52;5.13;;;2.00;;
16979;SDS011;42288;52.182;21.156;2023-05-21T14:57:18;4.68;;;1.90;;
16979;SDS011;42288;52.182;21.156;2023-05-21T14:59:44;6.80;;;1.97;;